Terminal Aerodrome Forecast
Issued by NWS Topeka, KS

Home | Current Version | Previous Version | Text Only | Print | Product List | Glossary Off
Versions: 1 2 3 4 5 6 7 8 9 10 11 12 13 14 15 16 17 18 19 20 21 22

000
FTUS43 KTOP 050236 AAB
TAFTOP
TAF AMD
KTOP 050236Z 0503/0524 18002KT 4SM BR MIFG SKC
      TEMPO 0503/0507 2SM BR MIFG SKC
     FM051200 17006KT 6SM BR SKC
     FM051600 18012G22KT P6SM SKC=

USA.gov is the U.S. government's official web portal to all federal, state and local government web resources and services.